sensor_id;sensor_type;location;lat;lon;timestamp;pressure;altitude;pressure_sealevel;temperature;humidity
55604;BME280;41468;48.838;9.330;2023-07-22T00:00:03;98261.50;;;15.70;92.64
55604;BME280;41468;48.838;9.330;2023-07-22T00:02:32;98269.28;;;15.82;91.92
55604;BME280;41468;48.838;9.330;2023-07-22T00:04:59;98269.38;;;15.72;93.78
55604;BME280;41468;48.838;9.330;2023-07-22T00:07:26;98265.84;;;15.64;93.40
55604;BME280;41468;48.838;9.330;2023-07-22T00:09:53;98263.50;;;15.62;94.30
55604;BME280;41468;48.838;9.330;2023-07-22T00:32:31;98269.19;;;15.97;87.20
55604;BME280;41468;48.838;9.330;2023-07-22T00:34:58;98268.03;;;15.94;87.40
55604;BME280;41468;48.838;9.330;2023-07-22T00:37:24;98270.06;;;15.86;87.81
55604;BME280;41468;48.838;9.330;2023-07-22T00:39:52;98265.78;;;15.78;88.84
55604;BME280;41468;48.838;9.330;2023-07-22T00:42:18;98274.84;;;15.68;89.97
55604;BME280;41468;48.838;9.330;2023-07-22T00:44:45;98268.25;;;15.55;91.04
55604;BME280;41468;48.838;9.330;2023-07-22T00:47:12;98274.97;;;15.46;91.58
55604;BME280;41468;48.838;9.330;2023-07-22T00:49:39;98262.81;;;15.48;91.70
55604;BME280;41468;48.838;9.330;2023-07-22T00:52:06;98265.63;;;15.37;92.74
55604;BME280;41468;48.838;9.330;2023-07-22T00:54:33;98264.03;;;15.36;92.16
55604;BME280;41468;48.838;9.330;2023-07-22T00:57:00;98253.81;;;15.40;91.83
55604;BME280;41468;48.838;9.330;2023-07-22T00:59:27;98259.31;;;15.36;92.06
55604;BME280;41468;48.838;9.330;2023-07-22T01:01:54;98260.53;;;15.32;92.67
55604;BME280;41468;48.838;9.330;2023-07-22T01:04:22;98261.69;;;15.31;92.87
55604;BME280;41468;48.838;9.330;2023-07-22T01:06:51;98258.94;;;15.31;92.58
55604;BME280;41468;48.838;9.330;2023-07-22T01:09:21;98255.44;;;15.23;93.18
55604;BME280;41468;48.838;9.330;2023-07-22T01:11:48;98255.13;;;15.10;94.38
55604;BME280;41468;48.838;9.330;2023-07-22T01:14:15;98261.41;;;15.07;94.58
55604;BME280;41468;48.838;9.330;2023-07-22T01:16:42;98253.91;;;15.15;93.72
55604;BME280;41468;48.838;9.330;2023-07-22T01:19:10;98265.31;;;15.13;93.08
55604;BME280;41468;48.838;9.330;2023-07-22T01:21:38;98252.34;;;15.07;93.58
55604;BME280;41468;48.838;9.330;2023-07-22T01:24:05;98247.63;;;15.14;93.23
55604;BME280;41468;48.838;9.330;2023-07-22T01:26:32;98247.28;;;15.01;93.54
55604;BME280;41468;48.838;9.330;2023-07-22T01:29:03;98244.13;;;15.07;93.34
55604;BME280;41468;48.838;9.330;2023-07-22T01:31:30;98248.84;;;15.06;93.90
55604;BME280;41468;48.838;9.330;2023-07-22T01:33:57;98246.06;;;15.10;93.70
55604;BME280;41468;48.838;9.330;2023-07-22T01:36:25;98240.53;;;15.17;93.01
55604;BME280;41468;48.838;9.330;2023-07-22T01:38:52;98247.63;;;15.18;93.59
55604;BME280;41468;48.838;9.330;2023-07-22T01:41:19;98242.13;;;15.14;93.86
55604;BME280;41468;48.838;9.330;2023-07-22T01:43:45;98239.41;;;15.07;94.58
55604;BME280;41468;48.838;9.330;2023-07-22T01:59:34;98238.25;;;14.97;93.91
55604;BME280;41468;48.838;9.330;2023-07-22T02:02:07;98247.75;;;14.82;94.81
55604;BME280;41468;48.838;9.330;2023-07-22T02:04:40;98248.13;;;14.91;93.81
55604;BME280;41468;48.838;9.330;2023-07-22T02:07:13;98250.94;;;14.70;95.96
55604;BME280;41468;48.838;9.330;2023-07-22T02:09:46;98247.34;;;14.84;94.78
55604;BME280;41468;48.838;9.330;2023-07-22T02:12:19;98241.44;;;14.92;93.43
55604;BME280;41468;48.838;9.330;2023-07-22T02:14:52;98243.81;;;14.83;94.27
55604;BME280;41468;48.838;9.330;2023-07-22T02:17:25;98242.25;;;14.78;94.68
55604;BME280;41468;48.838;9.330;2023-07-22T02:19:58;98240.34;;;14.65;95.79
55604;BME280;41468;48.838;9.330;2023-07-22T02:22:31;98250.13;;;14.73;95.38
55604;BME280;41468;48.838;9.330;2023-07-22T02:25:04;98250.13;;;14.66;95.67
55604;BME280;41468;48.838;9.330;2023-07-22T02:27:37;98245.44;;;14.70;95.98
55604;BME280;41468;48.838;9.330;2023-07-22T02:30:12;98254.84;;;14.72;95.48
55604;BME280;41468;48.838;9.330;2023-07-22T02:32:45;98254.81;;;14.76;94.17
55604;BME280;41468;48.838;9.330;2023-07-22T02:35:18;98256.41;;;14.80;94.25
55604;BME280;41468;48.838;9.330;2023-07-22T02:37:51;98259.13;;;14.91;92.79
55604;BME280;41468;48.838;9.330;2023-07-22T02:40:24;98255.13;;;15.10;90.72
55604;BME280;41468;48.838;9.330;2023-07-22T02:42:57;98251.97;;;15.15;90.65
55604;BME280;41468;48.838;9.330;2023-07-22T02:45:30;98260.19;;;15.19;89.75
55604;BME280;41468;48.838;9.330;2023-07-22T02:48:03;98252.31;;;15.17;89.78
55604;BME280;41468;48.838;9.330;2023-07-22T02:50:36;98253.88;;;15.22;88.83
55604;BME280;41468;48.838;9.330;2023-07-22T02:53:09;98251.13;;;15.22;89.06
55604;BME280;41468;48.838;9.330;2023-07-22T02:55:42;98258.22;;;15.16;89.85
55604;BME280;41468;48.838;9.330;2023-07-22T02:58:15;98250.00;;;15.09;89.36
55604;BME280;41468;48.838;9.330;2023-07-22T03:00:48;98253.16;;;15.11;90.01
55604;BME280;41468;48.838;9.330;2023-07-22T03:03:20;98248.81;;;15.10;90.71
55604;BME280;41468;48.838;9.330;2023-07-22T03:05:53;98253.91;;;15.11;89.41
55604;BME280;41468;48.838;9.330;2023-07-22T03:08:27;98244.88;;;15.14;89.39
55604;BME280;41468;48.838;9.330;2023-07-22T03:11:00;98246.44;;;15.12;89.10
55604;BME280;41468;48.838;9.330;2023-07-22T03:13:33;98251.94;;;15.12;88.66
55604;BME280;41468;48.838;9.330;2023-07-22T03:16:08;98251.66;;;14.92;90.41
55604;BME280;41468;48.838;9.330;2023-07-22T03:18:41;98241.84;;;14.87;90.52
55604;BME280;41468;48.838;9.330;2023-07-22T03:21:15;98247.31;;;14.87;90.95
55604;BME280;41468;48.838;9.330;2023-07-22T03:23:48;98244.97;;;14.89;90.54
55604;BME280;41468;48.838;9.330;2023-07-22T03:26:22;98243.47;;;14.70;91.67
55604;BME280;41468;48.838;9.330;2023-07-22T03:28:54;98244.63;;;14.66;92.18
55604;BME280;41468;48.838;9.330;2023-07-22T03:31:27;98247.78;;;14.50;93.68
55604;BME280;41468;48.838;9.330;2023-07-22T03:34:00;98251.72;;;14.34;95.14
55604;BME280;41468;48.838;9.330;2023-07-22T03:36:33;98242.34;;;14.32;95.06
55604;BME280;41468;48.838;9.330;2023-07-22T03:39:06;98239.19;;;14.41;94.86
55604;BME280;41468;48.838;9.330;2023-07-22T03:41:39;98244.28;;;14.31;95.57
55604;BME280;41468;48.838;9.330;2023-07-22T03:44:11;98243.88;;;14.44;94.67
55604;BME280;41468;48.838;9.330;2023-07-22T03:46:44;98251.34;;;14.43;94.97
55604;BME280;41468;48.838;9.330;2023-07-22T03:49:23;98250.53;;;14.46;94.65
55604;BME280;41468;48.838;9.330;2023-07-22T03:52:01;98250.13;;;14.48;94.34
55604;BME280;41468;48.838;9.330;2023-07-22T03:54:39;98256.03;;;14.50;94.02
55604;BME280;41468;48.838;9.330;2023-07-22T03:57:17;98252.50;;;14.46;94.46
55604;BME280;41468;48.838;9.330;2023-07-22T04:14:50;98251.22;;;14.93;89.40
55604;BME280;41468;48.838;9.330;2023-07-22T04:17:22;98250.88;;;14.91;89.09
55604;BME280;41468;48.838;9.330;2023-07-22T04:19:55;98247.75;;;14.78;89.69
55604;BME280;41468;48.838;9.330;2023-07-22T04:22:28;98248.88;;;14.95;89.18
55604;BME280;41468;48.838;9.330;2023-07-22T04:25:01;98249.66;;;14.92;88.76
55604;BME280;41468;48.838;9.330;2023-07-22T04:27:34;98258.72;;;14.96;88.54
55604;BME280;41468;48.838;9.330;2023-07-22T04:30:08;98250.41;;;15.07;87.75
55604;BME280;41468;48.838;9.330;2023-07-22T04:32:40;98247.66;;;15.03;87.73
55604;BME280;41468;48.838;9.330;2023-07-22T04:35:13;98244.50;;;15.09;87.36
55604;BME280;41468;48.838;9.330;2023-07-22T04:37:46;98243.75;;;15.05;87.06
55604;BME280;41468;48.838;9.330;2023-07-22T04:40:20;98239.03;;;15.01;87.35
55604;BME280;41468;48.838;9.330;2023-07-22T04:42:53;98248.44;;;15.04;87.27
55604;BME280;41468;48.838;9.330;2023-07-22T04:45:26;98243.31;;;15.13;86.78
55604;BME280;41468;48.838;9.330;2023-07-22T04:47:59;98238.97;;;15.19;86.65
55604;BME280;41468;48.838;9.330;2023-07-22T04:50:32;98237.38;;;15.22;87.46
55604;BME280;41468;48.838;9.330;2023-07-22T04:53:05;98248.41;;;15.15;90.94
55604;BME280;41468;48.838;9.330;2023-07-22T04:55:38;98243.25;;;15.24;91.30
55604;BME280;41468;48.838;9.330;2023-07-22T04:58:10;98247.63;;;15.18;93.17
55604;BME280;41468;48.838;9.330;2023-07-22T05:00:43;98249.97;;;15.16;94.01
55604;BME280;41468;48.838;9.330;2023-07-22T05:03:17;98249.16;;;15.26;92.17
55604;BME280;41468;48.838;9.330;2023-07-22T05:05:51;98252.28;;;15.32;88.55
55604;BME280;41468;48.838;9.330;2023-07-22T05:08:23;98249.06;;;15.40;87.42
55604;BME280;41468;48.838;9.330;2023-07-22T05:10:56;98253.31;;;15.52;86.42
55604;BME280;41468;48.838;9.330;2023-07-22T05:13:29;98247.75;;;15.63;86.09
55604;BME280;41468;48.838;9.330;2023-07-22T05:16:02;98257.25;;;15.58;86.72
55604;BME280;41468;48.838;9.330;2023-07-22T05:18:35;98259.25;;;15.51;87.29
55604;BME280;41468;48.838;9.330;2023-07-22T05:21:08;98257.31;;;15.48;87.08
55604;BME280;41468;48.838;9.330;2023-07-22T05:23:41;98263.13;;;15.57;87.84
55604;BME280;41468;48.838;9.330;2023-07-22T05:26:14;98268.59;;;15.64;87.38
55604;BME280;41468;48.838;9.330;2023-07-22T05:39:09;98268.13;;;15.83;85.36
55604;BME280;41468;48.838;9.330;2023-07-22T05:41:36;98274.78;;;15.86;85.32
55604;BME280;41468;48.838;9.330;2023-07-22T05:44:06;98270.72;;;16.05;84.46
55604;BME280;41468;48.838;9.330;2023-07-22T05:46:33;98271.47;;;16.09;84.28
55604;BME280;41468;48.838;9.330;2023-07-22T05:49:00;98278.47;;;16.17;83.09
55604;BME280;41468;48.838;9.330;2023-07-22T05:51:27;98288.66;;;16.24;82.93
55604;BME280;41468;48.838;9.330;2023-07-22T05:54:00;98279.59;;;16.27;83.40
55604;BME280;41468;48.838;9.330;2023-07-22T05:56:27;98279.25;;;16.21;83.85
55604;BME280;41468;48.838;9.330;2023-07-22T05:58:54;98282.97;;;16.45;81.69
55604;BME280;41468;48.838;9.330;2023-07-22T06:01:23;98291.44;;;16.65;81.54
55604;BME280;41468;48.838;9.330;2023-07-22T06:03:50;98296.84;;;16.76;80.84
55604;BME280;41468;48.838;9.330;2023-07-22T06:06:17;98300.66;;;16.93;79.06
55604;BME280;41468;48.838;9.330;2023-07-22T06:08:47;98295.75;;;17.08;78.31
55604;BME280;41468;48.838;9.330;2023-07-22T06:11:14;98305.94;;;17.14;77.84
55604;BME280;41468;48.838;9.330;2023-07-22T06:13:40;98304.28;;;17.20;79.09
55604;BME280;41468;48.838;9.330;2023-07-22T06:16:08;98311.66;;;17.31;77.66
55604;BME280;41468;48.838;9.330;2023-07-22T06:18:34;98313.53;;;17.37;77.20
55604;BME280;41468;48.838;9.330;2023-07-22T06:21:01;98310.38;;;17.39;76.42
55604;BME280;41468;48.838;9.330;2023-07-22T06:23:28;98314.25;;;17.45;76.22
55604;BME280;41468;48.838;9.330;2023-07-22T06:25:55;98320.03;;;17.54;76.59
55604;BME280;41468;48.838;9.330;2023-07-22T06:28:22;98317.97;;;17.62;75.76
55604;BME280;41468;48.838;9.330;2023-07-22T06:30:49;98312.66;;;17.75;73.79
55604;BME280;41468;48.838;9.330;2023-07-22T06:33:16;98315.13;;;17.69;74.52
55604;BME280;41468;48.838;9.330;2023-07-22T06:35:42;98313.03;;;17.80;74.34
55604;BME280;41468;48.838;9.330;2023-07-22T06:38:09;98318.38;;;17.91;74.13
55604;BME280;41468;48.838;9.330;2023-07-22T06:40:36;98318.06;;;18.13;73.27
55604;BME280;41468;48.838;9.330;2023-07-22T06:43:03;98313.91;;;18.28;72.36
55604;BME280;41468;48.838;9.330;2023-07-22T06:45:31;98312.78;;;18.49;72.82
55604;BME280;41468;48.838;9.330;2023-07-22T06:47:58;98313.47;;;18.53;72.35
55604;BME280;41468;48.838;9.330;2023-07-22T06:50:25;98310.16;;;18.62;70.65
55604;BME280;41468;48.838;9.330;2023-07-22T06:52:52;98313.88;;;18.79;69.60
55604;BME280;41468;48.838;9.330;2023-07-22T06:55:18;98319.56;;;18.91;68.59
55604;BME280;41468;48.838;9.330;2023-07-22T06:57:48;98321.69;;;19.04;69.78
55604;BME280;41468;48.838;9.330;2023-07-22T07:00:15;98312.75;;;18.96;67.65
55604;BME280;41468;48.838;9.330;2023-07-22T07:02:44;98325.25;;;19.04;67.46
55604;BME280;41468;48.838;9.330;2023-07-22T07:05:11;98321.94;;;19.13;66.97
55604;BME280;41468;48.838;9.330;2023-07-22T07:07:39;98324.13;;;19.22;68.43
55604;BME280;41468;48.838;9.330;2023-07-22T07:10:07;98335.97;;;19.42;67.61
55604;BME280;41468;48.838;9.330;2023-07-22T07:12:34;98326.94;;;19.58;64.50
55604;BME280;41468;48.838;9.330;2023-07-22T07:15:07;98328.94;;;19.57;68.17
55604;BME280;41468;48.838;9.330;2023-07-22T07:17:35;98332.16;;;19.56;65.91
55604;BME280;41468;48.838;9.330;2023-07-22T07:20:02;98327.03;;;19.74;65.79
55604;BME280;41468;48.838;9.330;2023-07-22T07:22:33;98318.75;;;19.91;65.44
55604;BME280;41468;48.838;9.330;2023-07-22T07:25:00;98317.56;;;20.08;66.97
55604;BME280;41468;48.838;9.330;2023-07-22T07:27:27;98320.88;;;20.36;65.39
55604;BME280;41468;48.838;9.330;2023-07-22T07:29:54;98320.47;;;20.54;63.45
55604;BME280;41468;48.838;9.330;2023-07-22T07:32:21;98324.13;;;20.67;63.28
55604;BME280;41468;48.838;9.330;2023-07-22T07:34:49;98324.63;;;20.62;64.08
55604;BME280;41468;48.838;9.330;2023-07-22T07:37:22;98320.13;;;20.68;64.83
55604;BME280;41468;48.838;9.330;2023-07-22T07:39:49;98319.13;;;20.91;61.45
55604;BME280;41468;48.838;9.330;2023-07-22T07:42:16;98312.91;;;21.16;61.30
55604;BME280;41468;48.838;9.330;2023-07-22T07:44:46;98321.50;;;21.34;61.57
55604;BME280;41468;48.838;9.330;2023-07-22T07:47:12;98323.28;;;21.57;61.74
55604;BME280;41468;48.838;9.330;2023-07-22T07:49:39;98314.31;;;21.79;60.50
55604;BME280;41468;48.838;9.330;2023-07-22T07:52:07;98316.97;;;21.95;59.74
55604;BME280;41468;48.838;9.330;2023-07-22T07:54:34;98309.75;;;22.11;59.44
55604;BME280;41468;48.838;9.330;2023-07-22T07:57:01;98314.75;;;21.90;58.23
55604;BME280;41468;48.838;9.330;2023-07-22T07:59:28;98317.31;;;21.84;57.68
55604;BME280;41468;48.838;9.330;2023-07-22T08:02:06;98305.31;;;22.00;57.06
55604;BME280;41468;48.838;9.330;2023-07-22T08:04:36;98311.31;;;22.12;59.07
55604;BME280;41468;48.838;9.330;2023-07-22T08:07:05;98312.06;;;22.50;58.67
55604;BME280;41468;48.838;9.330;2023-07-22T08:09:32;98306.13;;;22.61;56.97
55604;BME280;41468;48.838;9.330;2023-07-22T08:12:01;98310.00;;;22.77;57.24
55604;BME280;41468;48.838;9.330;2023-07-22T08:14:27;98311.69;;;23.09;55.44
55604;BME280;41468;48.838;9.330;2023-07-22T08:16:54;98309.09;;;23.14;54.98
55604;BME280;41468;48.838;9.330;2023-07-22T08:19:21;98316.16;;;23.06;54.80
55604;BME280;41468;48.838;9.330;2023-07-22T08:21:48;98313.97;;;23.23;54.13
55604;BME280;41468;48.838;9.330;2023-07-22T08:24:15;98314.63;;;23.27;53.70
55604;BME280;41468;48.838;9.330;2023-07-22T08:26:41;98306.63;;;23.60;55.87
55604;BME280;41468;48.838;9.330;2023-07-22T08:29:08;98308.59;;;23.73;54.60
55604;BME280;41468;48.838;9.330;2023-07-22T08:31:36;98302.91;;;23.86;53.07
55604;BME280;41468;48.838;9.330;2023-07-22T08:34:02;98306.94;;;23.85;52.50
55604;BME280;41468;48.838;9.330;2023-07-22T08:36:29;98301.94;;;23.79;51.66
55604;BME280;41468;48.838;9.330;2023-07-22T08:38:56;98295.94;;;23.81;50.28
55604;BME280;41468;48.838;9.330;2023-07-22T08:41:24;98296.88;;;23.87;50.85
55604;BME280;41468;48.838;9.330;2023-07-22T08:43:54;98298.19;;;24.05;49.99
55604;BME280;41468;48.838;9.330;2023-07-22T08:46:22;98288.81;;;24.39;50.00
55604;BME280;41468;48.838;9.330;2023-07-22T08:48:53;98278.66;;;24.45;48.39
55604;BME280;41468;48.838;9.330;2023-07-22T08:51:21;98278.19;;;24.74;47.93
55604;BME280;41468;48.838;9.330;2023-07-22T08:53:50;98279.94;;;24.81;46.91
55604;BME280;41468;48.838;9.330;2023-07-22T08:56:36;98283.34;;;25.31;46.39
55604;BME280;41468;48.838;9.330;2023-07-22T08:59:05;98271.41;;;25.21;45.95
55604;BME280;41468;48.838;9.330;2023-07-22T09:01:33;98276.97;;;24.75;45.67
55604;BME280;41468;48.838;9.330;2023-07-22T09:04:01;98266.66;;;24.35;47.08
55604;BME280;41468;48.838;9.330;2023-07-22T09:06:29;98271.28;;;23.79;47.79
55604;BME280;41468;48.838;9.330;2023-07-22T09:08:56;98271.31;;;23.57;49.09
55604;BME280;41468;48.838;9.330;2023-07-22T09:11:24;98266.88;;;23.38;50.66
55604;BME280;41468;48.838;9.330;2023-07-22T09:13:51;98268.19;;;23.24;52.10
55604;BME280;41468;48.838;9.330;2023-07-22T09:16:19;98265.97;;;23.19;53.40
55604;BME280;41468;48.838;9.330;2023-07-22T09:18:47;98267.34;;;23.14;53.51
55604;BME280;41468;48.838;9.330;2023-07-22T09:21:14;98273.97;;;22.95;54.05
55604;BME280;41468;48.838;9.330;2023-07-22T09:23:40;98278.91;;;22.78;53.44
55604;BME280;41468;48.838;9.330;2023-07-22T09:28:56;98272.00;;;22.83;52.96
55604;BME280;41468;48.838;9.330;2023-07-22T09:31:25;98274.84;;;23.05;53.08
55604;BME280;41468;48.838;9.330;2023-07-22T09:33:52;98265.31;;;23.15;52.91
55604;BME280;41468;48.838;9.330;2023-07-22T09:36:22;98265.66;;;23.17;52.54
55604;BME280;41468;48.838;9.330;2023-07-22T09:39:02;98274.97;;;23.23;52.51
55604;BME280;41468;48.838;9.330;2023-07-22T09:41:30;98271.59;;;23.28;53.24
55604;BME280;41468;48.838;9.330;2023-07-22T09:43:58;98262.25;;;23.44;52.61
55604;BME280;41468;48.838;9.330;2023-07-22T09:46:31;98270.25;;;23.64;51.70
55604;BME280;41468;48.838;9.330;2023-07-22T09:49:03;98277.31;;;23.78;51.68
55604;BME280;41468;48.838;9.330;2023-07-22T09:51:35;98267.22;;;23.71;51.72
55604;BME280;41468;48.838;9.330;2023-07-22T09:54:19;98268.69;;;23.63;53.03
55604;BME280;41468;48.838;9.330;2023-07-22T09:56:48;98270.44;;;24.01;51.05
55604;BME280;41468;48.838;9.330;2023-07-22T09:59:17;98265.25;;;24.31;48.86
55604;BME280;41468;48.838;9.330;2023-07-22T10:01:46;98260.06;;;24.60;46.09
55604;BME280;41468;48.838;9.330;2023-07-22T10:04:16;98252.47;;;25.07;46.88
55604;BME280;41468;48.838;9.330;2023-07-22T10:06:43;98255.69;;;25.42;47.36
55604;BME280;41468;48.838;9.330;2023-07-22T10:09:11;98251.13;;;25.54;46.48
55604;BME280;41468;48.838;9.330;2023-07-22T10:11:39;98252.03;;;25.60;46.15
55604;BME280;41468;48.838;9.330;2023-07-22T10:14:06;98252.34;;;25.62;44.41
55604;BME280;41468;48.838;9.330;2023-07-22T10:16:34;98249.19;;;25.78;43.60
55604;BME280;41468;48.838;9.330;2023-07-22T10:19:02;98247.22;;;26.03;43.55
55604;BME280;41468;48.838;9.330;2023-07-22T10:21:31;98243.75;;;25.84;43.86
55604;BME280;41468;48.838;9.330;2023-07-22T10:24:00;98247.00;;;26.16;42.89
55604;BME280;41468;48.838;9.330;2023-07-22T10:26:28;98247.34;;;25.85;43.49
55604;BME280;41468;48.838;9.330;2023-07-22T10:29:13;98249.94;;;25.79;43.76
55604;BME280;41468;48.838;9.330;2023-07-22T10:31:40;98254.50;;;25.67;44.36
55604;BME280;41468;48.838;9.330;2023-07-22T10:34:08;98245.16;;;25.79;43.54
55604;BME280;41468;48.838;9.330;2023-07-22T10:36:35;98239.13;;;25.72;43.61
55604;BME280;41468;48.838;9.330;2023-07-22T10:39:03;98243.41;;;25.40;45.49
55604;BME280;41468;48.838;9.330;2023-07-22T10:41:32;98239.56;;;25.09;44.95
55604;BME280;41468;48.838;9.330;2023-07-22T10:44:00;98241.31;;;24.88;46.36
55604;BME280;41468;48.838;9.330;2023-07-22T10:46:35;98236.66;;;24.85;46.39
55604;BME280;41468;48.838;9.330;2023-07-22T10:49:12;98233.38;;;24.96;44.01
55604;BME280;41468;48.838;9.330;2023-07-22T10:51:40;98234.38;;;25.54;43.89
55604;BME280;41468;48.838;9.330;2023-07-22T10:54:14;98234.31;;;26.06;43.87
55604;BME280;41468;48.838;9.330;2023-07-22T10:56:43;98229.69;;;26.51;43.14
55604;BME280;41468;48.838;9.330;2023-07-22T10:59:11;98230.59;;;26.57;42.49
55604;BME280;41468;48.838;9.330;2023-07-22T11:01:39;98225.78;;;26.33;41.59
55604;BME280;41468;48.838;9.330;2023-07-22T11:04:25;98218.72;;;26.14;43.38
55604;BME280;41468;48.838;9.330;2023-07-22T11:07:34;98225.50;;;26.46;42.69
55604;BME280;41468;48.838;9.330;2023-07-22T11:10:17;98212.09;;;26.74;40.16
55604;BME280;41468;48.838;9.330;2023-07-22T11:12:45;98214.56;;;26.96;40.67
55604;BME280;41468;48.838;9.330;2023-07-22T11:15:15;98206.69;;;27.24;39.70
55604;BME280;41468;48.838;9.330;2023-07-22T11:17:42;98208.41;;;27.22;39.63
55604;BME280;41468;48.838;9.330;2023-07-22T11:20:09;98204.13;;;26.97;39.45
55604;BME280;41468;48.838;9.330;2023-07-22T11:22:39;98206.66;;;26.56;40.06
55604;BME280;41468;48.838;9.330;2023-07-22T11:25:07;98197.59;;;26.61;41.03
55604;BME280;41468;48.838;9.330;2023-07-22T11:27:35;98200.31;;;26.70;40.07
55604;BME280;41468;48.838;9.330;2023-07-22T11:30:03;98196.06;;;26.36;40.07
55604;BME280;41468;48.838;9.330;2023-07-22T11:32:31;98194.69;;;26.55;40.54
55604;BME280;41468;48.838;9.330;2023-07-22T11:34:58;98194.38;;;26.29;40.57
55604;BME280;41468;48.838;9.330;2023-07-22T11:37:27;98194.91;;;25.94;41.11
55604;BME280;41468;48.838;9.330;2023-07-22T11:40:00;98194.13;;;25.61;41.79
55604;BME280;41468;48.838;9.330;2023-07-22T11:42:28;98199.34;;;25.34;40.89
55604;BME280;41468;48.838;9.330;2023-07-22T11:45:02;98204.16;;;25.34;41.90
55604;BME280;41468;48.838;9.330;2023-07-22T11:47:29;98196.81;;;25.79;41.71
55604;BME280;41468;48.838;9.330;2023-07-22T11:49:58;98188.00;;;26.05;39.98
55604;BME280;41468;48.838;9.330;2023-07-22T11:52:24;98181.69;;;26.19;40.23
55604;BME280;41468;48.838;9.330;2023-07-22T11:54:52;98178.84;;;26.04;40.46
55604;BME280;41468;48.838;9.330;2023-07-22T11:57:23;98164.41;;;26.44;39.56
55604;BME280;41468;48.838;9.330;2023-07-22T11:59:52;98170.56;;;26.73;38.27
55604;BME280;41468;48.838;9.330;2023-07-22T12:02:21;98166.81;;;27.05;38.16
55604;BME280;41468;48.838;9.330;2023-07-22T12:04:55;98155.53;;;27.29;38.17
55604;BME280;41468;48.838;9.330;2023-07-22T12:07:26;98160.81;;;27.42;37.20
55604;BME280;41468;48.838;9.330;2023-07-22T12:09:55;98149.19;;;27.64;36.74
55604;BME280;41468;48.838;9.330;2023-07-22T12:12:35;98146.25;;;27.73;36.53
55604;BME280;41468;48.838;9.330;2023-07-22T12:15:09;98151.38;;;27.75;35.80
55604;BME280;41468;48.838;9.330;2023-07-22T12:17:59;98152.28;;;27.81;35.25
55604;BME280;41468;48.838;9.330;2023-07-22T12:20:28;98140.97;;;27.96;36.39
55604;BME280;41468;48.838;9.330;2023-07-22T12:22:56;98142.94;;;27.90;36.92
55604;BME280;41468;48.838;9.330;2023-07-22T12:25:23;98140.44;;;27.77;35.38
55604;BME280;41468;48.838;9.330;2023-07-22T12:27:50;98132.13;;;27.83;35.96
55604;BME280;41468;48.838;9.330;2023-07-22T12:30:18;98140.44;;;27.77;35.85
55604;BME280;41468;48.838;9.330;2023-07-22T12:32:46;98137.16;;;27.79;35.57
55604;BME280;41468;48.838;9.330;2023-07-22T12:35:15;98132.41;;;27.49;36.91
55604;BME280;41468;48.838;9.330;2023-07-22T12:37:42;98120.72;;;27.71;36.57
55604;BME280;41468;48.838;9.330;2023-07-22T12:40:16;98125.69;;;27.97;36.26
55604;BME280;41468;48.838;9.330;2023-07-22T12:42:43;98121.22;;;28.05;36.70
55604;BME280;41468;48.838;9.330;2023-07-22T12:45:10;98124.03;;;28.05;35.45
55604;BME280;41468;48.838;9.330;2023-07-22T12:47:37;98114.44;;;28.17;37.46
55604;BME280;41468;48.838;9.330;2023-07-22T12:50:05;98108.16;;;28.43;35.50
55604;BME280;41468;48.838;9.330;2023-07-22T12:52:34;98108.22;;;28.49;35.83
55604;BME280;41468;48.838;9.330;2023-07-22T12:55:01;98118.66;;;28.07;36.09
55604;BME280;41468;48.838;9.330;2023-07-22T12:57:28;98111.44;;;28.01;36.35
55604;BME280;41468;48.838;9.330;2023-07-22T12:59:55;98103.44;;;28.14;35.93
55604;BME280;41468;48.838;9.330;2023-07-22T13:02:21;98104.94;;;27.89;36.28
55604;BME280;41468;48.838;9.330;2023-07-22T13:04:49;98106.09;;;27.47;37.19
55604;BME280;41468;48.838;9.330;2023-07-22T13:07:16;98108.66;;;27.15;37.81
55604;BME280;41468;48.838;9.330;2023-07-22T13:09:42;98104.31;;;26.70;37.27
55604;BME280;41468;48.838;9.330;2023-07-22T13:12:10;98106.69;;;26.47;38.04
55604;BME280;41468;48.838;9.330;2023-07-22T13:14:37;98097.59;;;26.22;38.16
55604;BME280;41468;48.838;9.330;2023-07-22T13:17:05;98097.19;;;26.15;38.85
55604;BME280;41468;48.838;9.330;2023-07-22T13:19:33;98104.03;;;26.53;38.21
55604;BME280;41468;48.838;9.330;2023-07-22T13:21:59;98095.31;;;27.10;37.56
55604;BME280;41468;48.838;9.330;2023-07-22T13:24:32;98084.66;;;27.44;35.41
55604;BME280;41468;48.838;9.330;2023-07-22T13:26:59;98090.16;;;27.73;35.77
55604;BME280;41468;48.838;9.330;2023-07-22T13:29:26;98089.63;;;27.90;35.79
55604;BME280;41468;48.838;9.330;2023-07-22T13:31:54;98083.44;;;27.65;34.65
55604;BME280;41468;48.838;9.330;2023-07-22T13:34:20;98085.72;;;27.67;34.23
55604;BME280;41468;48.838;9.330;2023-07-22T13:36:47;98080.97;;;27.38;34.14
55604;BME280;41468;48.838;9.330;2023-07-22T13:39:14;98087.00;;;27.66;36.24
55604;BME280;41468;48.838;9.330;2023-07-22T13:41:41;98091.63;;;27.69;35.02
55604;BME280;41468;48.838;9.330;2023-07-22T13:44:08;98086.16;;;27.60;34.08
55604;BME280;41468;48.838;9.330;2023-07-22T13:46:35;98085.56;;;27.35;34.52
55604;BME280;41468;48.838;9.330;2023-07-22T13:49:02;98083.38;;;27.24;35.48
55604;BME280;41468;48.838;9.330;2023-07-22T13:51:28;98074.44;;;27.41;35.04
55604;BME280;41468;48.838;9.330;2023-07-22T13:53:55;98079.59;;;27.48;35.51
55604;BME280;41468;48.838;9.330;2023-07-22T13:56:24;98078.06;;;27.47;35.98
55604;BME280;41468;48.838;9.330;2023-07-22T13:58:51;98070.78;;;27.55;35.78
55604;BME280;41468;48.838;9.330;2023-07-22T14:01:18;98072.63;;;27.58;35.91
55604;BME280;41468;48.838;9.330;2023-07-22T14:03:45;98075.28;;;27.47;35.80
55604;BME280;41468;48.838;9.330;2023-07-22T14:06:12;98080.22;;;27.37;36.72
55604;BME280;41468;48.838;9.330;2023-07-22T14:08:44;98070.41;;;27.12;36.69
55604;BME280;41468;48.838;9.330;2023-07-22T14:11:11;98065.97;;;26.76;37.28
55604;BME280;41468;48.838;9.330;2023-07-22T14:13:38;98073.13;;;26.77;38.87